Time;durP1;ratioP1;P1;durP2;ratioP2;P2;SDS_P1;SDS_P2;PMS_P1;PMS_P2;Temp;Humidity;BMP_temperature;BMP_pressure;BME280_temperature;BME280_humidity;BME280_pressure;Samples;Min_cycle;Max_cycle;Signal;HPM_P1;HPM_P2
2022/03/15 00:00:20;;;;;;;23.03;17.30;;;8.60;99.90;;;;;;4999478;28;20672;-67
2022/03/15 00:02:49;;;;;;;18.43;16.17;;;8.70;99.90;;;;;;5000027;28;20225;-70
2022/03/15 00:05:17;;;;;;;22.87;16.93;;;8.80;99.90;;;;;;4997130;28;20725;-68
2022/03/15 00:07:44;;;;;;;20.73;16.20;;;8.80;99.90;;;;;;4999358;28;20701;-67
2022/03/15 00:10:12;;;;;;;22.60;17.07;;;8.80;99.90;;;;;;5000721;28;20198;-67
2022/03/15 00:12:39;;;;;;;19.20;15.10;;;8.80;99.90;;;;;;5003385;28;20208;-67
2022/03/15 00:15:08;;;;;;;20.00;15.17;;;8.70;99.90;;;;;;5004037;28;20203;-68
2022/03/15 00:17:35;;;;;;;24.40;17.40;;;8.70;99.90;;;;;;5003660;28;20528;-66
2022/03/15 00:20:02;;;;;;;17.00;14.53;;;8.70;99.90;;;;;;5001359;28;20224;-67
2022/03/15 00:22:30;;;;;;;21.17;17.47;;;8.70;99.90;;;;;;5003225;28;20194;-68
2022/03/15 00:24:56;;;;;;;22.47;14.90;;;8.70;99.90;;;;;;4999971;28;20242;-69
2022/03/15 00:27:21;;;;;;;19.57;16.13;;;8.70;99.90;;;;;;5018815;28;20233;-68
2022/03/15 00:29:47;;;;;;;19.07;14.03;;;8.70;99.90;;;;;;5014260;28;20205;-68
2022/03/15 00:32:19;;;;;;;20.83;14.57;;;8.70;99.90;;;;;;5002988;28;20792;-68
2022/03/15 00:34:48;;;;;;;20.07;15.37;;;8.80;99.90;;;;;;4998239;28;20209;-70
2022/03/15 00:37:14;;;;;;;19.50;14.87;;;8.80;99.90;;;;;;4995013;28;20233;-69
2022/03/15 00:39:41;;;;;;;15.93;14.13;;;8.70;99.90;;;;;;5001940;28;20235;-67
2022/03/15 00:42:07;;;;;;;22.67;14.03;;;8.60;99.90;;;;;;5007420;28;20228;-68
2022/03/15 00:44:33;;;;;;;19.60;14.20;;;8.60;99.90;;;;;;4992103;28;20207;-68
2022/03/15 00:46:59;;;;;;;20.40;14.63;;;8.70;99.90;;;;;;4997228;28;21035;-67
2022/03/15 00:49:26;;;;;;;22.33;15.07;;;8.60;99.90;;;;;;4992697;28;20238;-71
2022/03/15 00:51:51;;;;;;;18.63;15.17;;;8.60;99.90;;;;;;4994625;28;20205;-79
2022/03/15 00:54:17;;;;;;;22.80;15.43;;;8.50;99.90;;;;;;5005182;28;20221;-78
2022/03/15 00:56:43;;;;;;;25.00;16.53;;;8.50;99.90;;;;;;5004498;28;20213;-80
2022/03/15 00:59:09;;;;;;;19.93;15.40;;;8.50;99.90;;;;;;5002058;28;20253;-80
2022/03/15 01:01:36;;;;;;;22.13;14.50;;;8.50;99.90;;;;;;5005542;28;20218;-78
2022/03/15 01:04:02;;;;;;;20.40;14.30;;;8.40;99.90;;;;;;5003568;28;20212;-79
2022/03/15 01:06:28;;;;;;;20.33;14.07;;;8.40;99.90;;;;;;5008587;28;20694;-79
2022/03/15 01:08:54;;;;;;;18.03;13.80;;;8.40;99.90;;;;;;5003482;28;20298;-80
2022/03/15 01:11:19;;;;;;;19.70;15.07;;;8.40;99.90;;;;;;5007033;28;20194;-79
2022/03/15 01:13:45;;;;;;;19.13;14.20;;;8.40;99.90;;;;;;4999951;28;20214;-80
2022/03/15 01:16:11;;;;;;;20.57;14.97;;;8.40;99.90;;;;;;5003479;28;20319;-79
2022/03/15 01:18:37;;;;;;;24.97;15.93;;;8.30;99.90;;;;;;5003420;28;20200;-79
2022/03/15 01:21:02;;;;;;;20.27;14.33;;;8.30;99.90;;;;;;5001413;28;20272;-79
2022/03/15 01:23:28;;;;;;;23.00;15.77;;;8.20;99.90;;;;;;4999251;28;20191;-79
2022/03/15 01:25:55;;;;;;;16.47;14.60;;;8.20;99.90;;;;;;5004300;28;20253;-80
2022/03/15 01:28:21;;;;;;;21.73;15.87;;;8.10;99.90;;;;;;5009621;28;20246;-80
2022/03/15 01:30:46;;;;;;;23.23;15.57;;;8.10;99.90;;;;;;5007555;28;20218;-80
2022/03/15 01:33:12;;;;;;;22.47;15.83;;;8.00;99.90;;;;;;5001677;28;20207;-81
2022/03/15 01:35:38;;;;;;;21.57;15.13;;;7.90;99.90;;;;;;5005691;28;20907;-81
2022/03/15 01:38:04;;;;;;;23.00;14.70;;;7.90;99.90;;;;;;4999671;28;20204;-78
2022/03/15 01:40:29;;;;;;;21.57;15.63;;;8.00;99.90;;;;;;4999539;28;20611;-79
2022/03/15 01:42:55;;;;;;;23.23;15.43;;;8.00;99.90;;;;;;5011320;28;20252;-80
2022/03/15 01:45:30;;;;;;;19.43;15.00;;;8.00;99.90;;;;;;5005218;28;20233;-79
2022/03/15 01:47:55;;;;;;;22.07;14.83;;;8.00;99.90;;;;;;5007657;28;20878;-78
2022/03/15 01:50:21;;;;;;;26.93;15.47;;;7.90;99.90;;;;;;5000627;28;20215;-80
2022/03/15 01:52:47;;;;;;;22.07;14.60;;;7.90;99.90;;;;;;5011764;28;20329;-78
2022/03/15 01:55:12;;;;;;;20.57;14.17;;;8.00;99.90;;;;;;5000045;28;20847;-79
2022/03/15 01:57:38;;;;;;;21.07;15.47;;;7.90;99.90;;;;;;5006657;28;20207;-78
2022/03/15 02:00:05;;;;;;;22.70;15.07;;;7.90;99.90;;;;;;5000566;28;20232;-77
2022/03/15 02:02:30;;;;;;;24.03;15.97;;;7.90;99.90;;;;;;5002677;28;20185;-79
2022/03/15 02:04:55;;;;;;;27.43;16.03;;;7.90;99.90;;;;;;4995280;28;20261;-78
2022/03/15 02:07:21;;;;;;;26.07;16.13;;;7.80;99.90;;;;;;5004653;28;20283;-79
2022/03/15 02:09:47;;;;;;;24.10;17.43;;;7.80;99.90;;;;;;5002023;28;20200;-80
2022/03/15 02:12:13;;;;;;;23.17;16.33;;;7.80;99.90;;;;;;5017524;28;20224;-79
2022/03/15 02:14:39;;;;;;;24.27;16.10;;;7.80;99.90;;;;;;5008769;28;20208;-80
2022/03/15 02:17:05;;;;;;;22.83;17.40;;;7.80;99.90;;;;;;5007548;28;20270;-78
2022/03/15 02:19:30;;;;;;;29.20;17.20;;;7.80;99.90;;;;;;4987274;28;20212;-79
2022/03/15 02:21:59;;;;;;;24.90;16.77;;;7.80;99.90;;;;;;4997820;28;20312;-74
2022/03/15 02:24:25;;;;;;;28.27;16.77;;;7.80;99.90;;;;;;5007264;28;20480;-74
2022/03/15 02:26:51;;;;;;;23.40;16.83;;;7.80;99.90;;;;;;5001443;28;20699;-74
2022/03/15 02:29:18;;;;;;;21.63;15.93;;;7.80;99.90;;;;;;5005242;28;20219;-74
2022/03/15 02:31:44;;;;;;;27.20;17.30;;;7.80;99.90;;;;;;5013056;28;20269;-73
2022/03/15 02:34:09;;;;;;;26.20;17.80;;;7.80;99.90;;;;;;4988644;28;20200;-74
2022/03/15 02:36:35;;;;;;;25.70;18.03;;;7.80;99.90;;;;;;5002219;28;20283;-75
2022/03/15 02:39:00;;;;;;;27.37;16.93;;;7.70;99.90;;;;;;5006632;28;20662;-77
2022/03/15 02:41:26;;;;;;;24.43;16.97;;;7.70;99.90;;;;;;5006367;28;20560;-77
2022/03/15 02:43:51;;;;;;;26.77;17.33;;;7.80;99.90;;;;;;5008496;28;20190;-81
2022/03/15 02:46:17;;;;;;;19.57;15.30;;;7.80;99.90;;;;;;5006563;28;20207;-78
2022/03/15 02:48:43;;;;;;;20.87;15.53;;;7.90;99.90;;;;;;5007800;28;20561;-78
2022/03/15 02:51:10;;;;;;;23.00;15.77;;;8.00;99.90;;;;;;5005457;28;20204;-78
2022/03/15 02:53:36;;;;;;;26.37;17.63;;;7.90;99.90;;;;;;5006448;28;20279;-74
2022/03/15 02:56:02;;;;;;;26.63;17.47;;;7.90;99.90;;;;;;5004768;28;20212;-75
2022/03/15 02:58:27;;;;;;;27.63;17.10;;;7.80;99.90;;;;;;5012294;28;20188;-76
2022/03/15 03:00:53;;;;;;;23.17;16.17;;;7.80;99.90;;;;;;5011244;28;20212;-76
2022/03/15 03:03:19;;;;;;;20.03;16.43;;;7.80;99.90;;;;;;5013993;28;20190;-76
2022/03/15 03:05:44;;;;;;;24.83;16.23;;;7.70;99.90;;;;;;5008904;28;20274;-76
2022/03/15 03:08:10;;;;;;;22.50;16.93;;;7.70;99.90;;;;;;5020694;28;20737;-76
2022/03/15 03:10:36;;;;;;;22.73;16.07;;;7.70;99.90;;;;;;5005567;28;20193;-75
2022/03/15 03:13:02;;;;;;;26.03;16.53;;;7.80;99.90;;;;;;5012406;28;20297;-75
2022/03/15 03:15:29;;;;;;;21.17;16.03;;;7.80;99.90;;;;;;5005601;28;20328;-75
2022/03/15 03:17:54;;;;;;;22.43;15.63;;;7.80;99.90;;;;;;5020199;28;20235;-76
2022/03/15 03:20:21;;;;;;;26.67;17.07;;;7.80;99.90;;;;;;5004746;28;20208;-76
2022/03/15 03:22:47;;;;;;;25.67;17.73;;;7.70;99.90;;;;;;5016131;28;20200;-75
2022/03/15 03:25:13;;;;;;;26.57;19.40;;;7.70;99.90;;;;;;5005676;28;20212;-76
2022/03/15 03:27:39;;;;;;;23.83;17.73;;;7.70;99.90;;;;;;5003398;28;20232;-75
2022/03/15 03:30:05;;;;;;;19.97;16.40;;;7.70;99.90;;;;;;5005472;28;20215;-76
2022/03/15 03:32:31;;;;;;;28.00;19.27;;;7.60;99.90;;;;;;5002543;28;20194;-76
2022/03/15 03:34:58;;;;;;;22.23;16.30;;;7.60;99.90;;;;;;5006351;28;20197;-75
2022/03/15 03:37:25;;;;;;;27.20;18.13;;;7.60;99.90;;;;;;5003766;28;20197;-76
2022/03/15 03:39:51;;;;;;;25.63;17.13;;;7.50;99.90;;;;;;5019398;28;20381;-75
2022/03/15 03:42:17;;;;;;;25.77;17.43;;;7.40;99.90;;;;;;5009663;28;20582;-75
2022/03/15 03:44:43;;;;;;;28.50;19.83;;;7.30;99.90;;;;;;5016107;28;20185;-75
2022/03/15 03:47:09;;;;;;;31.53;20.70;;;7.40;99.90;;;;;;5005176;28;20211;-75
2022/03/15 03:49:35;;;;;;;33.73;21.17;;;7.30;99.90;;;;;;5020558;28;20553;-75
2022/03/15 03:52:02;;;;;;;31.50;20.40;;;7.30;99.90;;;;;;5004946;28;20818;-75
2022/03/15 03:54:28;;;;;;;27.73;19.93;;;7.20;99.90;;;;;;5014368;28;20193;-75
2022/03/15 03:56:53;;;;;;;35.60;20.97;;;7.10;99.90;;;;;;5005483;28;20196;-75
2022/03/15 03:59:19;;;;;;;30.60;21.90;;;7.10;99.90;;;;;;5020943;28;20195;-76
2022/03/15 04:01:44;;;;;;;32.20;21.60;;;7.00;99.90;;;;;;5005332;28;20204;-75
2022/03/15 04:04:10;;;;;;;28.17;19.23;;;7.00;99.90;;;;;;5017240;28;20211;-75
2022/03/15 04:06:38;;;;;;;30.07;20.80;;;7.00;99.90;;;;;;5005676;28;20270;-75
2022/03/15 04:09:04;;;;;;;30.87;20.63;;;6.90;99.90;;;;;;5012802;28;20205;-75
2022/03/15 04:11:31;;;;;;;35.37;22.17;;;6.90;99.90;;;;;;5005614;28;20299;-75
2022/03/15 04:13:59;;;;;;;37.43;21.27;;;6.90;99.90;;;;;;4998615;28;20212;-75
2022/03/15 04:16:24;;;;;;;31.10;19.43;;;6.90;99.90;;;;;;5005222;28;20690;-75
2022/03/15 04:18:50;;;;;;;34.87;21.33;;;6.80;99.90;;;;;;5019045;28;20203;-75
2022/03/15 04:21:15;;;;;;;29.93;20.60;;;6.80;99.90;;;;;;5005289;28;20211;-75
2022/03/15 04:23:41;;;;;;;35.20;21.63;;;6.70;99.90;;;;;;5008389;28;20234;-75
2022/03/15 04:26:06;;;;;;;30.97;20.50;;;6.70;99.90;;;;;;5013578;28;20258;-75
2022/03/15 04:28:32;;;;;;;29.60;20.00;;;6.70;99.90;;;;;;5019198;28;21006;-74
2022/03/15 04:30:57;;;;;;;28.53;20.13;;;6.60;99.90;;;;;;5005409;28;20192;-74
2022/03/15 04:33:23;;;;;;;30.03;19.57;;;6.60;99.90;;;;;;5005425;28;20208;-75
2022/03/15 04:35:48;;;;;;;24.97;18.47;;;6.60;99.90;;;;;;5011803;28;20287;-74
2022/03/15 04:38:14;;;;;;;32.00;20.20;;;6.60;99.90;;;;;;5013399;28;20621;-74
2022/03/15 04:40:39;;;;;;;32.03;21.73;;;6.60;99.90;;;;;;5004948;28;20216;-74
2022/03/15 04:43:06;;;;;;;33.70;21.50;;;6.50;99.90;;;;;;5012564;28;20574;-74
2022/03/15 04:45:32;;;;;;;31.13;19.90;;;6.60;99.90;;;;;;5021414;28;20799;-74
2022/03/15 04:47:58;;;;;;;27.30;18.80;;;6.50;99.90;;;;;;5004099;28;20208;-75
2022/03/15 04:50:24;;;;;;;31.93;19.37;;;6.50;99.90;;;;;;5016707;28;20691;-75
2022/03/15 04:52:49;;;;;;;30.10;19.80;;;6.50;99.90;;;;;;5010991;28;20239;-76
2022/03/15 04:55:15;;;;;;;28.93;19.10;;;6.50;99.90;;;;;;5009320;28;20279;-75
2022/03/15 04:57:42;;;;;;;31.07;20.73;;;6.50;99.90;;;;;;5009646;28;20200;-75
2022/03/15 05:00:09;;;;;;;23.63;19.23;;;6.60;99.90;;;;;;5026253;28;20190;-74
2022/03/15 05:02:41;;;;;;;30.03;19.70;;;6.60;99.90;;;;;;5014739;28;20817;-74
2022/03/15 05:05:07;;;;;;;25.50;19.20;;;6.60;99.90;;;;;;5010871;28;20172;-75
2022/03/15 05:07:34;;;;;;;30.43;19.80;;;6.60;99.90;;;;;;5014788;28;20191;-75
2022/03/15 05:12:44;;;;;;;30.70;19.97;;;6.50;99.90;;;;;;5015393;28;20738;-74
2022/03/15 05:15:09;;;;;;;34.30;22.30;;;6.40;99.90;;;;;;5016437;28;20266;-73
2022/03/15 05:17:36;;;;;;;29.00;20.77;;;6.30;99.90;;;;;;5006527;28;20682;-73
2022/03/15 05:20:04;;;;;;;28.67;20.63;;;6.30;99.90;;;;;;5007472;28;20200;-75
2022/03/15 05:22:31;;;;;;;30.80;21.17;;;6.20;99.90;;;;;;5006068;28;20209;-75
2022/03/15 05:24:56;;;;;;;35.00;21.37;;;6.20;99.90;;;;;;5019422;28;20223;-74
2022/03/15 05:27:22;;;;;;;30.73;20.63;;;6.10;99.90;;;;;;5008534;28;20664;-75
2022/03/15 05:29:48;;;;;;;34.40;23.70;;;6.10;99.90;;;;;;5007705;28;20208;-71
2022/03/15 05:32:14;;;;;;;31.33;20.60;;;6.10;99.90;;;;;;5005238;28;20913;-72
2022/03/15 05:34:39;;;;;;;32.43;22.53;;;6.20;99.90;;;;;;4991352;28;20295;-71
2022/03/15 05:37:07;;;;;;;31.47;21.00;;;6.20;99.90;;;;;;5006794;28;20718;-74
2022/03/15 05:39:33;;;;;;;34.10;22.43;;;6.20;99.90;;;;;;5016085;28;20453;-74
2022/03/15 05:41:59;;;;;;;31.60;22.47;;;6.10;99.90;;;;;;5016643;28;20220;-73
2022/03/15 05:44:26;;;;;;;35.70;22.43;;;6.10;99.90;;;;;;5024868;28;20186;-75
2022/03/15 05:46:52;;;;;;;38.90;22.87;;;6.10;99.90;;;;;;5007399;28;20219;-75
2022/03/15 05:49:17;;;;;;;31.77;21.33;;;6.00;99.90;;;;;;5009110;28;20228;-73
2022/03/15 05:51:43;;;;;;;33.23;22.50;;;6.00;99.90;;;;;;5006801;28;20764;-73
2022/03/15 05:54:08;;;;;;;31.30;21.80;;;5.90;99.90;;;;;;5019368;28;20211;-74
2022/03/15 05:56:34;;;;;;;34.00;22.57;;;5.90;99.90;;;;;;5006993;28;20192;-71
2022/03/15 05:59:00;;;;;;;35.17;22.10;;;5.90;99.90;;;;;;5013099;28;20200;-70
2022/03/15 06:01:26;;;;;;;32.03;21.23;;;5.90;99.90;;;;;;5020175;28;20231;-71
2022/03/15 06:03:53;;;;;;;39.20;22.87;;;5.90;99.90;;;;;;5015282;28;20290;-73
2022/03/15 06:06:20;;;;;;;30.03;20.20;;;5.80;99.90;;;;;;5023777;28;20235;-74
2022/03/15 06:08:45;;;;;;;31.47;21.93;;;5.80;99.90;;;;;;5007517;28;20211;-75
2022/03/15 06:11:11;;;;;;;29.13;22.20;;;5.90;99.90;;;;;;5007735;28;20667;-74
2022/03/15 06:13:36;;;;;;;36.37;23.63;;;5.90;99.90;;;;;;5018622;28;20677;-73
2022/03/15 06:16:02;;;;;;;36.13;22.50;;;6.00;99.90;;;;;;5006836;28;20191;-74
2022/03/15 06:18:27;;;;;;;31.97;21.83;;;6.00;99.90;;;;;;5017762;28;20208;-73
2022/03/15 06:20:53;;;;;;;31.37;21.60;;;5.90;99.90;;;;;;5021908;28;20653;-74
2022/03/15 06:23:22;;;;;;;33.17;21.27;;;5.90;99.90;;;;;;5020123;28;20326;-73
2022/03/15 06:25:47;;;;;;;33.13;23.40;;;5.90;99.90;;;;;;5018474;28;20574;-72
2022/03/15 06:28:12;;;;;;;35.67;22.93;;;5.90;99.90;;;;;;5018426;28;20232;-74
2022/03/15 06:30:38;;;;;;;32.40;23.53;;;5.90;99.90;;;;;;5005426;28;20195;-73
2022/03/15 06:33:04;;;;;;;36.80;25.17;;;6.00;99.90;;;;;;5006047;28;20220;-73
2022/03/15 06:35:29;;;;;;;36.23;24.33;;;6.00;99.90;;;;;;5015852;28;20197;-74
2022/03/15 06:37:55;;;;;;;34.63;24.13;;;6.00;99.90;;;;;;5019351;28;20284;-75
2022/03/15 06:40:24;;;;;;;36.43;22.23;;;5.90;99.90;;;;;;5006428;28;20246;-74
2022/03/15 06:42:50;;;;;;;35.73;24.17;;;6.00;99.90;;;;;;5007240;28;20187;-74
2022/03/15 06:45:16;;;;;;;32.37;22.30;;;6.00;99.90;;;;;;5019052;28;20199;-73
2022/03/15 06:47:41;;;;;;;36.57;23.50;;;6.10;99.90;;;;;;5013804;28;20195;-73
2022/03/15 06:50:08;;;;;;;29.37;20.93;;;6.10;99.90;;;;;;5021424;28;20192;-74
2022/03/15 06:52:35;;;;;;;35.90;22.90;;;6.10;99.90;;;;;;5016434;28;20294;-74
2022/03/15 06:55:01;;;;;;;36.50;24.90;;;6.10;99.90;;;;;;5012382;28;20191;-74
2022/03/15 06:57:26;;;;;;;37.27;23.87;;;6.20;99.90;;;;;;5015006;28;20565;-73
2022/03/15 06:59:54;;;;;;;30.90;22.23;;;6.20;99.90;;;;;;4988234;28;20281;-74
2022/03/15 07:02:19;;;;;;;30.87;22.13;;;6.30;99.90;;;;;;5014284;28;20216;-75
2022/03/15 07:04:45;;;;;;;34.00;22.50;;;6.40;99.90;;;;;;5006061;28;20247;-76
2022/03/15 07:07:10;;;;;;;33.30;22.37;;;6.40;99.90;;;;;;5019788;28;20210;-77
2022/03/15 07:09:36;;;;;;;30.53;22.40;;;6.50;99.90;;;;;;5016931;28;20192;-77
2022/03/15 07:12:02;;;;;;;29.93;22.10;;;6.60;99.90;;;;;;5014121;28;20208;-77
2022/03/15 07:14:27;;;;;;;33.93;23.80;;;6.70;99.90;;;;;;5006203;28;20196;-77
2022/03/15 07:16:52;;;;;;;31.47;21.90;;;6.80;99.90;;;;;;5016378;28;20967;-76
2022/03/15 07:19:18;;;;;;;32.97;22.00;;;6.90;99.90;;;;;;5016590;28;20248;-76
2022/03/15 07:21:44;;;;;;;29.60;21.77;;;7.00;99.90;;;;;;5015831;28;20837;-76
2022/03/15 07:24:09;;;;;;;32.53;22.77;;;7.00;99.90;;;;;;5015031;28;20194;-76
2022/03/15 07:26:35;;;;;;;28.27;20.83;;;7.00;99.90;;;;;;4986689;28;20234;-76
2022/03/15 07:29:01;;;;;;;30.80;22.43;;;7.00;99.90;;;;;;5006038;28;20192;-76
2022/03/15 07:31:26;;;;;;;31.30;21.53;;;7.00;99.90;;;;;;5006729;28;20203;-74
2022/03/15 07:33:52;;;;;;;33.87;20.97;;;7.00;99.90;;;;;;5013599;28;20190;-76
2022/03/15 07:36:18;;;;;;;35.30;23.93;;;7.00;99.90;;;;;;5016680;28;20684;-75
2022/03/15 07:38:44;;;;;;;30.83;21.53;;;7.10;99.90;;;;;;5005506;28;20246;-76
2022/03/15 07:41:09;;;;;;;35.13;23.47;;;7.10;99.90;;;;;;5003469;28;20214;-75
2022/03/15 07:43:35;;;;;;;33.93;21.97;;;7.10;99.90;;;;;;5022207;28;20533;-73
2022/03/15 07:46:00;;;;;;;33.60;22.97;;;7.20;99.90;;;;;;5008965;28;20241;-74
2022/03/15 07:48:26;;;;;;;33.93;22.40;;;7.20;99.90;;;;;;5010191;28;20362;-72
2022/03/15 07:50:52;;;;;;;32.13;22.20;;;7.20;99.90;;;;;;5007244;28;20208;-72
2022/03/15 07:53:18;;;;;;;35.93;22.20;;;7.30;99.90;;;;;;5015417;28;20184;-72
2022/03/15 07:55:44;;;;;;;33.37;23.10;;;7.50;99.90;;;;;;5014783;28;20207;-73
2022/03/15 07:58:09;;;;;;;39.37;23.93;;;7.60;99.90;;;;;;5010767;28;20233;-74
2022/03/15 08:00:35;;;;;;;34.20;22.00;;;7.70;99.90;;;;;;5004359;28;20222;-74
2022/03/15 08:03:00;;;;;;;35.10;23.07;;;7.70;99.90;;;;;;5017329;28;20195;-75
2022/03/15 08:05:28;;;;;;;37.80;23.40;;;7.80;99.90;;;;;;5019474;28;20199;-73
2022/03/15 08:07:54;;;;;;;35.03;24.67;;;7.90;99.90;;;;;;5007895;28;20211;-71
2022/03/15 08:10:20;;;;;;;31.50;21.53;;;7.90;99.90;;;;;;5022141;28;20259;-73
2022/03/15 08:12:46;;;;;;;35.20;23.67;;;8.00;99.90;;;;;;5012084;28;20532;-73
2022/03/15 08:15:11;;;;;;;36.83;23.87;;;8.10;99.90;;;;;;5005389;28;20199;-71
2022/03/15 08:17:38;;;;;;;32.87;24.67;;;8.20;99.90;;;;;;5012012;28;20480;-72
2022/03/15 08:20:04;;;;;;;34.67;25.93;;;8.30;99.90;;;;;;5017545;28;20220;-72
2022/03/15 08:22:30;;;;;;;35.53;25.30;;;8.40;99.90;;;;;;5013209;28;20584;-72
2022/03/15 08:24:57;;;;;;;32.43;22.57;;;8.60;99.90;;;;;;5004702;28;20209;-73
2022/03/15 08:27:22;;;;;;;30.33;22.87;;;8.60;99.90;;;;;;5019259;28;20235;-72
2022/03/15 08:29:48;;;;;;;36.90;23.40;;;8.70;99.90;;;;;;5014562;28;20189;-72
2022/03/15 08:32:13;;;;;;;37.77;23.50;;;8.70;99.90;;;;;;5002515;28;20205;-72
2022/03/15 08:34:39;;;;;;;35.90;22.63;;;8.80;99.90;;;;;;5006031;28;20560;-72
2022/03/15 08:37:05;;;;;;;34.30;23.47;;;8.80;99.90;;;;;;5012500;28;20295;-72
2022/03/15 08:39:31;;;;;;;34.10;23.43;;;8.90;99.90;;;;;;5016763;28;20735;-72
2022/03/15 08:41:57;;;;;;;37.63;24.23;;;9.00;99.90;;;;;;5009751;28;20221;-72
2022/03/15 08:44:23;;;;;;;31.37;22.53;;;9.10;99.90;;;;;;5011087;28;20402;-72
2022/03/15 08:46:49;;;;;;;33.97;23.87;;;9.10;99.90;;;;;;5019739;28;20691;-72
2022/03/15 08:49:16;;;;;;;34.20;23.87;;;9.20;99.90;;;;;;5021438;28;20249;-72
2022/03/15 08:51:42;;;;;;;32.97;22.77;;;9.30;99.90;;;;;;5016583;28;20204;-72
2022/03/15 08:54:08;;;;;;;33.53;24.13;;;9.30;99.90;;;;;;5008703;28;20203;-72
2022/03/15 08:56:35;;;;;;;35.13;24.93;;;9.40;99.90;;;;;;5006589;28;20212;-70
2022/03/15 08:59:00;;;;;;;36.53;25.57;;;9.50;99.90;;;;;;5008833;28;20203;-71
2022/03/15 09:01:26;;;;;;;40.40;25.90;;;9.50;99.90;;;;;;5015055;28;20212;-70
2022/03/15 09:03:52;;;;;;;38.17;26.43;;;9.60;99.90;;;;;;5025157;28;20354;-71
2022/03/15 09:06:17;;;;;;;42.00;25.13;;;9.60;99.90;;;;;;5014082;28;20208;-71
2022/03/15 09:08:43;;;;;;;36.83;24.93;;;9.70;99.90;;;;;;5011882;28;20634;-72
2022/03/15 09:11:08;;;;;;;36.30;23.53;;;9.70;99.90;;;;;;5018885;28;20554;-71
2022/03/15 09:13:34;;;;;;;34.80;23.50;;;9.70;99.90;;;;;;5012851;28;20194;-72
2022/03/15 09:16:00;;;;;;;37.53;25.43;;;9.80;99.90;;;;;;5014358;28;20225;-72
2022/03/15 09:18:26;;;;;;;38.80;24.00;;;9.90;99.90;;;;;;5017226;28;20195;-72
2022/03/15 09:20:52;;;;;;;34.93;23.43;;;10.00;99.90;;;;;;5009864;28;20420;-72
2022/03/15 09:23:18;;;;;;;41.60;22.03;;;10.10;99.90;;;;;;5019660;28;20196;-72
2022/03/15 09:25:44;;;;;;;29.70;21.57;;;10.30;99.90;;;;;;5017416;28;20657;-73
2022/03/15 09:28:10;;;;;;;30.03;20.63;;;10.40;99.90;;;;;;5017355;28;20251;-72
2022/03/15 09:30:36;;;;;;;37.17;22.73;;;10.50;99.90;;;;;;5017606;28;20274;-73
2022/03/15 09:33:02;;;;;;;30.43;23.03;;;10.50;99.90;;;;;;5015924;28;20349;-74
2022/03/15 09:35:28;;;;;;;31.63;21.63;;;10.60;99.90;;;;;;5014292;28;20287;-73
2022/03/15 09:37:54;;;;;;;35.20;21.33;;;10.70;99.90;;;;;;5012723;28;20195;-73
2022/03/15 09:40:25;;;;;;;32.10;21.57;;;10.80;99.90;;;;;;5004952;28;20223;-73
2022/03/15 09:42:58;;;;;;;28.20;20.40;;;10.90;99.90;;;;;;5009130;28;20286;-73
2022/03/15 09:45:28;;;;;;;33.10;21.60;;;10.90;99.90;;;;;;5013166;28;20190;-72
2022/03/15 09:47:58;;;;;;;26.67;18.90;;;10.80;99.90;;;;;;5020982;28;20269;-72
2022/03/15 09:50:25;;;;;;;30.53;19.83;;;10.70;99.90;;;;;;5005937;28;20244;-71
2022/03/15 09:52:56;;;;;;;35.37;20.13;;;10.90;99.90;;;;;;5024011;28;20187;-72
2022/03/15 09:55:23;;;;;;;29.90;19.17;;;11.00;99.90;;;;;;5018000;28;20215;-72
2022/03/15 09:57:49;;;;;;;24.37;18.63;;;11.10;99.90;;;;;;5017784;28;20184;-71
2022/03/15 10:00:16;;;;;;;26.53;19.43;;;11.10;99.90;;;;;;5007853;28;20199;-73
2022/03/15 10:02:46;;;;;;;31.43;19.17;;;11.20;99.90;;;;;;5016031;28;20701;-73
2022/03/15 10:05:12;;;;;;;40.60;19.70;;;11.20;99.90;;;;;;5007947;28;20447;-71
2022/03/15 10:07:38;;;;;;;34.43;19.27;;;11.30;99.90;;;;;;5020134;28;20532;-71
2022/03/15 10:10:06;;;;;;;25.77;18.73;;;11.40;99.90;;;;;;5007147;28;20194;-72
2022/03/15 10:12:34;;;;;;;22.67;17.33;;;11.40;99.90;;;;;;5015590;28;20196;-73
2022/03/15 10:15:14;;;;;;;27.37;16.43;;;11.40;99.90;;;;;;5007157;28;20201;-72
2022/03/15 10:17:53;;;;;;;26.83;16.97;;;11.40;99.90;;;;;;5004578;28;20301;-71
2022/03/15 10:20:20;;;;;;;20.00;15.30;;;11.40;99.90;;;;;;5019523;28;20348;-72
2022/03/15 10:23:11;;;;;;;26.17;16.70;;;11.60;99.90;;;;;;5010405;28;20218;-72
2022/03/15 10:25:41;;;;;;;24.10;14.63;;;11.70;99.90;;;;;;5010930;28;20674;-74
2022/03/15 10:28:08;;;;;;;23.97;15.37;;;11.60;99.90;;;;;;5019656;28;20419;-75
2022/03/15 10:30:36;;;;;;;26.03;15.20;;;11.70;99.90;;;;;;5021044;28;20202;-75
2022/03/15 10:33:02;;;;;;;19.50;12.53;;;11.80;99.90;;;;;;5014808;28;20712;-76
2022/03/15 10:35:31;;;;;;;15.13;11.00;;;11.80;99.90;;;;;;5007973;28;20291;-77
2022/03/15 10:37:57;;;;;;;16.37;12.13;;;11.90;99.90;;;;;;5016809;28;20192;-83
2022/03/15 10:40:39;;;;;;;24.93;13.87;;;12.10;99.90;;;;;;5005550;28;20200;-76
2022/03/15 10:43:07;;;;;;;28.57;14.10;;;12.30;99.90;;;;;;5014999;28;20670;-77
2022/03/15 10:45:34;;;;;;;17.50;12.23;;;12.50;99.90;;;;;;5009995;28;20199;-73
2022/03/15 10:48:01;;;;;;;20.43;13.33;;;12.60;99.90;;;;;;5006565;28;20180;-73
2022/03/15 10:50:29;;;;;;;18.53;11.83;;;12.70;99.90;;;;;;5005337;28;20278;-73
2022/03/15 10:52:55;;;;;;;17.47;12.50;;;12.60;99.90;;;;;;5006062;28;20187;-73
2022/03/15 10:55:22;;;;;;;20.33;13.37;;;12.70;99.90;;;;;;5007913;28;20188;-70
2022/03/15 10:57:54;;;;;;;14.60;11.47;;;12.80;99.90;;;;;;5003611;28;20180;-73
2022/03/15 11:00:23;;;;;;;18.00;12.67;;;12.80;99.90;;;;;;5008820;28;20196;-70
2022/03/15 11:02:50;;;;;;;17.53;13.13;;;13.00;99.90;;;;;;5003943;28;20173;-71
2022/03/15 11:05:31;;;;;;;17.70;12.77;;;13.00;99.90;;;;;;5006989;28;20188;-73
2022/03/15 11:07:57;;;;;;;21.27;13.00;;;13.20;99.90;;;;;;5005683;28;20190;-71
2022/03/15 11:10:23;;;;;;;16.73;12.00;;;13.00;99.90;;;;;;5003322;28;20270;-72
2022/03/15 11:12:59;;;;;;;17.17;12.40;;;13.00;99.90;;;;;;5014534;28;20184;-70
2022/03/15 11:15:28;;;;;;;19.43;11.17;;;13.00;99.90;;;;;;5015955;28;20206;-70
2022/03/15 11:17:57;;;;;;;19.03;11.13;;;13.00;99.90;;;;;;5012494;28;20183;-72
2022/03/15 11:20:23;;;;;;;12.93;8.20;;;13.10;99.90;;;;;;5011116;28;20190;-71
2022/03/15 11:22:52;;;;;;;13.47;7.23;;;13.10;99.90;;;;;;5016415;28;20190;-71
2022/03/15 11:25:21;;;;;;;13.87;7.97;;;13.10;99.30;;;;;;5008997;28;20218;-73
2022/03/15 11:27:51;;;;;;;13.60;7.60;;;13.30;98.80;;;;;;5013687;28;20318;-73
2022/03/15 11:30:20;;;;;;;10.43;8.03;;;13.50;98.50;;;;;;5013060;28;20203;-74
2022/03/15 11:32:47;;;;;;;14.27;8.47;;;13.70;98.60;;;;;;5014774;28;20223;-72
2022/03/15 11:35:14;;;;;;;12.60;8.40;;;13.60;98.80;;;;;;5019320;28;20725;-72
2022/03/15 11:37:41;;;;;;;13.13;8.90;;;13.40;97.10;;;;;;5022622;28;20207;-72
2022/03/15 11:40:10;;;;;;;14.97;8.97;;;13.30;97.30;;;;;;5022031;28;20195;-72
2022/03/15 11:42:42;;;;;;;13.53;7.73;;;13.20;97.70;;;;;;5007838;28;20277;-71
2022/03/15 11:45:32;;;;;;;7.60;5.83;;;13.20;96.80;;;;;;5003165;28;20219;-75
2022/03/15 11:48:05;;;;;;;8.93;5.43;;;13.10;95.20;;;;;;4997609;28;20258;-77
2022/03/15 11:50:49;;;;;;;8.23;4.97;;;13.10;95.20;;;;;;5000165;28;20173;-66
2022/03/15 11:53:26;;;;;;;12.63;8.13;;;13.30;95.00;;;;;;5002512;28;20227;-65
2022/03/15 11:56:11;;;;;;;14.70;9.53;;;13.60;96.30;;;;;;5003068;28;20227;-65
2022/03/15 11:58:37;;;;;;;11.77;8.40;;;13.50;96.10;;;;;;5003766;28;20212;-66
2022/03/15 12:01:14;;;;;;;13.00;8.37;;;13.60;96.00;;;;;;5005769;28;20255;-67
2022/03/15 12:03:49;;;;;;;13.47;8.17;;;13.90;95.70;;;;;;5004086;28;20242;-68
2022/03/15 12:06:27;;;;;;;12.63;9.77;;;14.20;95.00;;;;;;5003389;28;20746;-66
2022/03/15 12:08:58;;;;;;;15.57;10.13;;;14.30;94.70;;;;;;4992805;28;20266;-75
2022/03/15 12:11:28;;;;;;;15.33;9.23;;;14.40;94.60;;;;;;5006403;28;20199;-79
2022/03/15 12:14:11;;;;;;;11.63;8.40;;;14.20;93.40;;;;;;5010794;28;20631;-78
2022/03/15 12:16:41;;;;;;;10.73;8.30;;;14.30;93.30;;;;;;5005929;28;20207;-66
2022/03/15 12:22:02;;;;;;;17.77;10.83;;;14.90;92.60;;;;;;5018430;28;20222;-70
2022/03/15 12:24:41;;;;;;;13.73;9.63;;;15.10;93.10;;;;;;5016633;28;20224;-72
2022/03/15 12:27:09;;;;;;;18.90;11.13;;;15.30;92.70;;;;;;4979736;28;20309;-70
2022/03/15 12:29:38;;;;;;;16.13;10.03;;;15.60;92.80;;;;;;5020275;28;20192;-72
2022/03/15 12:32:18;;;;;;;13.23;8.47;;;15.90;92.20;;;;;;5006171;28;20203;-70
2022/03/15 12:34:44;;;;;;;18.03;10.47;;;16.30;88.40;;;;;;5017635;28;20245;-67
2022/03/15 12:37:11;;;;;;;12.80;9.27;;;16.40;87.60;;;;;;5003066;28;20291;-70
2022/03/15 12:39:36;;;;;;;14.67;9.80;;;16.50;86.70;;;;;;5007460;28;20192;-71